createdAt,value
2018-12-10T00:00:35.621Z,6.82
2018-12-10T00:01:35.604Z,6.65
2018-12-10T00:02:35.662Z,6.63
2018-12-10T00:03:35.691Z,6.78
2018-12-10T00:04:35.569Z,6.83
2018-12-10T00:05:45.450Z,6.74
2018-12-10T00:06:35.580Z,6.65
2018-12-10T00:07:35.538Z,6.79
2018-12-10T00:08:46.168Z,6.79
2018-12-10T00:09:43.082Z,6.83
2018-12-10T00:10:43.060Z,6.70
2018-12-10T00:11:35.509Z,6.81
2018-12-10T00:12:43.183Z,6.73
2018-12-10T00:13:44.333Z,6.79
2018-12-10T00:14:35.526Z,6.68
2018-12-10T00:15:35.479Z,6.74
2018-12-10T00:16:43.066Z,6.82
2018-12-10T00:17:35.447Z,6.75
2018-12-10T00:18:43.022Z,6.70
2018-12-10T00:19:46.426Z,6.70
2018-12-10T00:20:42.956Z,6.74
2018-12-10T00:21:42.954Z,6.78
2018-12-10T00:22:43.951Z,6.79
2018-12-10T00:23:42.938Z,6.81
2018-12-10T00:25:46.927Z,6.74
2018-12-10T00:27:56.098Z,6.67
2018-12-10T00:29:03.636Z,6.64
2018-12-10T00:29:56.118Z,6.70
2018-12-10T00:30:56.056Z,6.61
2018-12-10T00:31:56.041Z,6.64
2018-12-10T00:33:04.583Z,6.70
2018-12-10T00:33:56.069Z,6.67
2018-12-10T00:34:56.001Z,6.75
2018-12-10T00:35:56.018Z,6.73
2018-12-10T00:36:56.000Z,6.64
2018-12-10T00:37:55.972Z,6.70
2018-12-10T00:38:55.967Z,6.70
2018-12-10T00:39:55.945Z,6.75
2018-12-10T00:40:56.010Z,6.82
2018-12-10T00:41:55.930Z,6.82
2018-12-10T00:43:03.557Z,6.73
2018-12-10T00:43:55.907Z,6.79
2018-12-10T00:45:05.953Z,6.71
2018-12-10T00:46:04.468Z,6.79
2018-12-10T00:46:55.872Z,6.73
2018-12-10T00:47:55.882Z,6.70
2018-12-10T00:48:55.852Z,6.71
2018-12-10T00:49:55.858Z,6.64
2018-12-10T00:50:55.862Z,6.64
2018-12-10T00:51:55.888Z,6.65
2018-12-10T00:53:04.374Z,6.71
2018-12-10T00:53:55.887Z,6.70
2018-12-10T00:54:55.787Z,6.64
2018-12-10T00:55:55.861Z,6.61
2018-12-10T00:56:55.779Z,6.71
2018-12-10T00:57:55.762Z,6.64
2018-12-10T00:58:55.744Z,6.63
2018-12-10T00:59:55.755Z,6.63
2018-12-10T01:00:55.732Z,6.78
2018-12-10T01:01:55.735Z,6.64
2018-12-10T01:02:55.700Z,6.63
2018-12-10T01:03:55.690Z,6.53
2018-12-10T01:04:55.678Z,6.55
2018-12-10T01:05:55.693Z,6.65
2018-12-10T01:06:55.728Z,6.53
2018-12-10T01:07:55.655Z,6.60
2018-12-10T01:08:55.633Z,6.64
2018-12-10T01:09:55.628Z,6.60
2018-12-10T01:10:55.619Z,6.56
2018-12-10T01:11:55.624Z,6.52
2018-12-10T01:12:55.649Z,6.53
2018-12-10T01:13:55.583Z,6.53
2018-12-10T01:14:55.577Z,6.63
2018-12-10T01:15:55.562Z,6.55
2018-12-10T01:16:55.568Z,6.55
2018-12-10T01:17:55.563Z,6.55
2018-12-10T01:18:55.539Z,6.52
2018-12-10T01:19:55.646Z,6.57
2018-12-10T01:20:55.510Z,6.57
2018-12-10T01:22:05.537Z,6.53
2018-12-10T01:22:55.577Z,6.47
2018-12-10T01:23:55.482Z,6.52
2018-12-10T01:24:55.493Z,6.45
2018-12-10T01:25:55.455Z,6.50
2018-12-10T01:26:55.468Z,6.47
2018-12-10T01:27:55.433Z,6.49
2018-12-10T01:28:55.420Z,6.43
2018-12-10T01:29:55.419Z,6.47
2018-12-10T01:30:55.423Z,6.45
2018-12-10T01:31:55.414Z,6.47
2018-12-10T01:32:55.374Z,6.37
2018-12-10T01:33:55.375Z,6.46
2018-12-10T01:34:55.382Z,6.40
2018-12-10T01:35:55.348Z,6.32
2018-12-10T01:36:55.358Z,6.40
2018-12-10T01:37:55.344Z,6.38
2018-12-10T01:38:55.313Z,6.37
2018-12-10T01:39:55.322Z,6.35
2018-12-10T01:40:55.310Z,6.25
2018-12-10T01:41:55.302Z,6.27
2018-12-10T01:42:55.307Z,6.27
2018-12-10T01:43:55.282Z,6.24
2018-12-10T01:44:55.250Z,6.28
2018-12-10T01:45:55.257Z,6.21
2018-12-10T01:46:55.250Z,6.28
2018-12-10T01:47:55.267Z,6.28
2018-12-10T01:48:55.205Z,6.25
2018-12-10T01:49:55.194Z,6.28
2018-12-10T01:50:55.189Z,6.28
2018-12-10T01:51:55.198Z,6.31
2018-12-10T01:52:55.237Z,6.28
2018-12-10T01:53:55.194Z,6.28
2018-12-10T01:54:55.148Z,6.13
2018-12-10T01:55:55.127Z,6.15
2018-12-10T01:56:55.130Z,6.11
2018-12-10T01:57:55.159Z,6.13
2018-12-10T01:58:55.143Z,6.21
2018-12-10T01:59:55.142Z,6.08
2018-12-10T02:00:55.080Z,6.11
2018-12-10T02:01:55.066Z,6.05
2018-12-10T02:02:55.076Z,6.08
2018-12-10T02:03:55.066Z,6.05
2018-12-10T02:04:55.073Z,6.00
2018-12-10T02:05:55.040Z,6.08
2018-12-10T02:06:55.050Z,6.08
2018-12-10T02:07:54.997Z,6.05
2018-12-10T02:08:55.012Z,6.02
2018-12-10T02:09:54.979Z,5.98
2018-12-10T02:10:54.965Z,6.03
2018-12-10T02:11:55.012Z,6.02
2018-12-10T02:12:54.959Z,6.02
2018-12-10T02:13:54.964Z,6.02
2018-12-10T02:14:54.944Z,6.05
2018-12-10T02:15:54.918Z,5.95
2018-12-10T02:16:54.907Z,5.93
2018-12-10T02:17:54.979Z,5.94
2018-12-10T02:18:54.903Z,5.94
2018-12-10T02:19:54.918Z,5.93
2018-12-10T02:20:54.903Z,5.97
2018-12-10T02:21:54.886Z,5.97
2018-12-10T02:22:54.869Z,5.91
2018-12-10T02:23:54.915Z,5.97
2018-12-10T02:24:54.843Z,5.93
2018-12-10T02:25:54.812Z,5.94
2018-12-10T02:26:54.831Z,5.93
2018-12-10T02:27:54.788Z,5.91
2018-12-10T02:28:54.800Z,5.90
2018-12-10T02:29:54.883Z,5.94
2018-12-10T02:30:54.785Z,5.95
2018-12-10T02:31:54.742Z,5.98
2018-12-10T02:32:54.801Z,6.05
2018-12-10T02:34:02.258Z,5.93
2018-12-10T02:34:54.742Z,5.98
2018-12-10T02:35:54.742Z,5.95
2018-12-10T02:36:54.830Z,6.06
2018-12-10T02:37:54.703Z,6.05
2018-12-10T02:38:54.707Z,5.95
2018-12-10T02:39:54.705Z,5.93
2018-12-10T02:40:54.720Z,5.88
2018-12-10T02:41:54.685Z,5.94
2018-12-10T02:42:54.623Z,5.95
2018-12-10T02:43:54.664Z,5.97
2018-12-10T02:44:54.620Z,5.88
2018-12-10T02:45:54.593Z,5.94
2018-12-10T02:46:54.605Z,5.93
2018-12-10T02:47:54.568Z,5.80
2018-12-10T02:48:54.555Z,5.87
2018-12-10T02:49:54.547Z,5.84
2018-12-10T02:50:54.572Z,5.84
2018-12-10T02:51:54.554Z,5.84
2018-12-10T02:52:54.553Z,5.79
2018-12-10T02:53:54.509Z,5.84
2018-12-10T02:54:54.495Z,5.79
2018-12-10T02:55:54.527Z,5.87
2018-12-10T02:56:54.469Z,5.72
2018-12-10T02:57:54.503Z,5.77
2018-12-10T02:58:54.445Z,5.79
2018-12-10T02:59:54.439Z,5.75
2018-12-10T03:00:54.432Z,5.69
2018-12-10T03:01:54.493Z,5.73
2018-12-10T03:02:54.433Z,5.73
2018-12-10T03:03:54.460Z,5.75
2018-12-10T03:04:54.391Z,5.73
2018-12-10T03:05:54.371Z,5.75
2018-12-10T03:06:54.383Z,5.73
2018-12-10T03:07:54.398Z,5.70
2018-12-10T03:08:54.345Z,5.61
2018-12-10T03:09:54.333Z,5.62
2018-12-10T03:10:54.320Z,5.59
2018-12-10T03:11:54.365Z,5.61
2018-12-10T03:12:54.323Z,5.66
2018-12-10T03:13:54.333Z,5.70
2018-12-10T03:14:54.282Z,5.75
2018-12-10T03:15:54.274Z,5.70
2018-12-10T03:16:54.299Z,5.72
2018-12-10T03:17:54.298Z,5.61
2018-12-10T03:18:54.223Z,5.75
2018-12-10T03:19:54.234Z,5.66
2018-12-10T03:21:01.866Z,5.73
2018-12-10T03:21:54.242Z,5.69
2018-12-10T03:22:54.211Z,5.70
2018-12-10T03:23:54.206Z,5.70
2018-12-10T03:24:54.163Z,5.75
2018-12-10T03:25:54.149Z,5.75
2018-12-10T03:26:54.151Z,5.70
2018-12-10T03:27:54.158Z,5.77
2018-12-10T03:28:54.120Z,5.69
2018-12-10T03:29:54.163Z,5.67
2018-12-10T03:30:54.114Z,5.69
2018-12-10T03:31:54.090Z,5.73
2018-12-10T03:34:10.271Z,5.75
2018-12-10T03:35:10.256Z,5.84
2018-12-10T03:36:10.230Z,5.80
2018-12-10T03:37:10.217Z,5.79
2018-12-10T03:38:10.220Z,5.87
2018-12-10T03:39:10.229Z,5.93
2018-12-10T03:40:10.187Z,5.87
2018-12-10T03:41:10.268Z,5.77
2018-12-10T03:42:10.172Z,5.75
2018-12-10T03:43:10.151Z,5.76
2018-12-10T03:44:10.142Z,5.72
2018-12-10T03:45:10.154Z,5.69
2018-12-10T03:46:10.114Z,5.70
2018-12-10T03:47:10.138Z,5.67
2018-12-10T03:48:10.160Z,5.69
2018-12-10T03:49:18.239Z,5.62
2018-12-10T03:50:10.092Z,5.66
2018-12-10T03:51:10.095Z,5.65
2018-12-10T03:52:10.056Z,5.65
2018-12-10T03:53:10.071Z,5.69
2018-12-10T03:54:10.025Z,5.73
2018-12-10T03:55:10.081Z,5.61
2018-12-10T03:56:10.006Z,5.58
2018-12-10T03:57:09.994Z,5.59
2018-12-10T03:58:10.061Z,5.59
2018-12-10T03:59:10.034Z,5.54
2018-12-10T04:00:09.956Z,5.61
2018-12-10T04:01:09.966Z,5.58
2018-12-10T04:02:09.931Z,5.59
2018-12-10T04:03:09.925Z,5.54
2018-12-10T04:04:09.961Z,5.52
2018-12-10T04:05:09.984Z,5.54
2018-12-10T04:06:09.974Z,5.54
2018-12-10T04:07:09.888Z,5.52
2018-12-10T04:08:09.878Z,5.52
2018-12-10T04:09:09.876Z,5.54
2018-12-10T04:10:09.924Z,5.52
2018-12-10T04:11:09.834Z,5.54
2018-12-10T04:12:09.839Z,5.52
2018-12-10T04:13:09.813Z,5.54
2018-12-10T04:14:09.824Z,5.61
2018-12-10T04:15:09.852Z,5.52
2018-12-10T04:16:17.362Z,5.47
2018-12-10T04:17:09.817Z,5.47
2018-12-10T04:19:26.970Z,5.50
2018-12-10T04:20:26.955Z,5.51
2018-12-10T04:21:27.048Z,5.55
2018-12-10T04:22:34.515Z,5.57
2018-12-10T04:23:26.911Z,5.61
2018-12-10T04:24:26.900Z,5.62
2018-12-10T04:25:26.893Z,5.61
2018-12-10T04:26:26.892Z,5.61
2018-12-10T04:27:26.927Z,5.54
2018-12-10T04:28:26.875Z,5.65
2018-12-10T04:29:34.411Z,5.61
2018-12-10T04:30:26.838Z,5.62
2018-12-10T04:31:26.830Z,5.67
2018-12-10T04:32:26.831Z,5.57
2018-12-10T04:33:26.888Z,5.58
2018-12-10T04:34:26.795Z,5.59
2018-12-10T04:35:26.817Z,5.59
2018-12-10T04:36:26.836Z,5.62
2018-12-10T04:37:26.768Z,5.67
2018-12-10T04:38:26.773Z,5.69
2018-12-10T04:39:26.775Z,5.59
2018-12-10T04:40:26.731Z,5.66
2018-12-10T04:41:26.742Z,5.65
2018-12-10T04:42:26.708Z,5.66
2018-12-10T04:43:26.726Z,5.72
2018-12-10T04:44:26.709Z,5.65
2018-12-10T04:45:26.684Z,5.61
2018-12-10T04:46:26.673Z,5.62
2018-12-10T04:47:26.721Z,5.62
2018-12-10T04:48:26.641Z,5.59
2018-12-10T04:49:26.672Z,5.62
2018-12-10T04:50:26.662Z,5.62
2018-12-10T04:51:26.617Z,5.54
2018-12-10T04:52:26.607Z,5.55
2018-12-10T04:53:26.594Z,5.70
2018-12-10T04:54:35.275Z,5.59
2018-12-10T04:55:34.111Z,5.62
2018-12-10T04:56:26.554Z,5.66
2018-12-10T04:57:26.593Z,5.59
2018-12-10T04:58:26.555Z,5.62
2018-12-10T04:59:26.526Z,5.65
2018-12-10T05:00:26.543Z,5.61
2018-12-10T05:01:34.090Z,5.59
2018-12-10T05:02:26.492Z,5.59
2018-12-10T05:03:26.483Z,5.58
2018-12-10T05:04:26.570Z,5.67
2018-12-10T05:05:26.479Z,5.55
2018-12-10T05:06:26.457Z,5.59
2018-12-10T05:07:26.450Z,5.62
2018-12-10T05:08:26.425Z,5.61
2018-12-10T05:09:26.441Z,5.55
2018-12-10T05:10:26.434Z,5.55
2018-12-10T05:11:26.417Z,5.48
2018-12-10T05:12:26.402Z,5.61
2018-12-10T05:13:26.383Z,5.54
2018-12-10T05:14:26.402Z,5.50
2018-12-10T05:15:26.378Z,5.48
2018-12-10T05:16:26.411Z,5.52
2018-12-10T05:17:26.339Z,5.52
2018-12-10T05:18:26.325Z,5.48
2018-12-10T05:19:26.314Z,5.51
2018-12-10T05:20:26.296Z,5.58
2018-12-10T05:21:26.314Z,5.47
2018-12-10T05:22:26.282Z,5.47
2018-12-10T05:23:26.297Z,5.50
2018-12-10T05:24:26.290Z,5.43
2018-12-10T05:25:26.316Z,5.44
2018-12-10T05:26:26.275Z,5.41
2018-12-10T05:27:26.232Z,5.48
2018-12-10T05:28:26.223Z,5.50
2018-12-10T05:29:33.793Z,5.47
2018-12-10T05:30:26.202Z,5.41
2018-12-10T05:31:26.185Z,5.44
2018-12-10T05:32:26.279Z,5.43
2018-12-10T05:33:26.156Z,5.47
2018-12-10T05:34:26.235Z,5.47
2018-12-10T05:35:26.162Z,5.55
2018-12-10T05:36:26.150Z,5.54
2018-12-10T05:37:26.154Z,5.52
2018-12-10T05:38:26.108Z,5.51
2018-12-10T05:39:26.087Z,5.52
2018-12-10T05:40:26.107Z,5.51
2018-12-10T05:41:26.080Z,5.54
2018-12-10T05:42:26.091Z,5.59
2018-12-10T05:43:26.119Z,5.54
2018-12-10T05:44:26.033Z,5.48
2018-12-10T05:45:26.062Z,5.51
2018-12-10T05:46:26.048Z,5.54
2018-12-10T05:47:26.069Z,5.55
2018-12-10T05:48:26.027Z,5.55
2018-12-10T05:49:33.570Z,5.51
2018-12-10T05:50:25.968Z,5.41
2018-12-10T05:51:25.980Z,5.51
2018-12-10T05:52:25.966Z,5.50
2018-12-10T05:53:26.020Z,5.44
2018-12-10T05:54:25.955Z,5.40
2018-12-10T05:55:25.920Z,5.43
2018-12-10T05:56:25.981Z,5.44
2018-12-10T05:57:25.897Z,5.41
2018-12-10T05:58:25.905Z,5.32
2018-12-10T05:59:25.914Z,5.33
2018-12-10T06:00:25.865Z,5.39
2018-12-10T06:01:34.460Z,5.32
2018-12-10T06:02:25.858Z,5.34
2018-12-10T06:03:25.861Z,5.37
2018-12-10T06:04:25.864Z,5.39
2018-12-10T06:05:25.807Z,5.39
2018-12-10T06:06:25.800Z,5.40
2018-12-10T06:07:25.820Z,5.37
2018-12-10T06:08:25.772Z,5.47
2018-12-10T06:09:25.805Z,5.44
2018-12-10T06:10:25.779Z,5.50
2018-12-10T06:12:29.099Z,5.50
2018-12-10T06:13:29.038Z,5.47
2018-12-10T06:14:29.036Z,5.43
2018-12-10T06:15:29.005Z,5.48
2018-12-10T06:16:28.957Z,5.43
2018-12-10T06:17:28.946Z,5.44
2018-12-10T06:18:28.938Z,5.47
2018-12-10T06:19:28.975Z,5.47
2018-12-10T06:20:28.925Z,5.51
2018-12-10T06:21:28.966Z,5.51
2018-12-10T06:22:28.891Z,5.48
2018-12-10T06:23:28.982Z,5.50
2018-12-10T06:25:46.417Z,5.48
2018-12-10T06:28:03.633Z,5.47
2018-12-10T06:29:12.381Z,5.50
2018-12-10T06:30:11.695Z,5.44
2018-12-10T06:31:12.720Z,5.50
2018-12-10T06:32:11.616Z,5.44
2018-12-10T06:33:03.583Z,5.41
2018-12-10T06:34:03.538Z,5.40
2018-12-10T06:36:24.645Z,5.47
2018-12-10T06:37:24.622Z,5.43
2018-12-10T06:38:24.560Z,5.47
2018-12-10T06:39:24.559Z,5.43
2018-12-10T06:40:24.518Z,5.39
2018-12-10T06:41:24.519Z,5.40
2018-12-10T06:42:24.584Z,5.39
2018-12-10T06:43:24.513Z,5.37
2018-12-10T06:44:24.915Z,5.36
2018-12-10T06:45:24.467Z,5.47
2018-12-10T06:46:24.535Z,5.40
2018-12-10T06:47:24.448Z,5.39
2018-12-10T06:48:24.429Z,5.43
2018-12-10T06:49:33.458Z,5.40
2018-12-10T06:51:35.780Z,5.40
2018-12-10T06:53:48.287Z,5.43
2018-12-10T06:54:55.904Z,5.41
2018-12-10T06:55:57.868Z,5.37
2018-12-10T06:57:58.072Z,5.44
2018-12-10T06:59:05.583Z,5.34
2018-12-10T07:00:06.120Z,5.37
2018-12-10T07:01:07.197Z,5.32
2018-12-10T07:02:06.634Z,5.34
2018-12-10T07:02:57.933Z,5.30
2018-12-10T07:03:57.921Z,5.30
2018-12-10T07:04:57.945Z,5.36
2018-12-10T07:05:57.847Z,5.33
2018-12-10T07:06:57.824Z,5.36
2018-12-10T07:07:57.893Z,5.34
2018-12-10T07:10:31.131Z,5.36
2018-12-10T07:11:30.712Z,5.36
2018-12-10T07:12:37.305Z,5.33
2018-12-10T07:13:30.511Z,5.25
2018-12-10T07:14:30.467Z,5.32
2018-12-10T07:15:30.457Z,5.33
2018-12-10T07:16:30.446Z,5.36
2018-12-10T07:17:30.436Z,5.40
2018-12-10T07:18:30.453Z,5.29
2018-12-10T07:19:30.443Z,5.37
2018-12-10T07:20:30.399Z,5.37
2018-12-10T07:21:30.392Z,5.36
2018-12-10T07:22:30.558Z,5.34
2018-12-10T07:23:30.371Z,5.34
2018-12-10T07:24:30.381Z,5.36
2018-12-10T07:25:30.364Z,5.36
2018-12-10T07:26:30.344Z,5.34
2018-12-10T07:27:30.324Z,5.34
2018-12-10T07:28:30.318Z,5.39
2018-12-10T07:29:30.337Z,5.43
2018-12-10T07:30:30.397Z,5.34
2018-12-10T07:31:30.286Z,5.36
2018-12-10T07:32:30.430Z,5.39
2018-12-10T07:33:30.263Z,5.44
2018-12-10T07:34:30.276Z,5.40
2018-12-10T07:35:40.792Z,5.40
2018-12-10T07:36:30.230Z,5.43
2018-12-10T07:37:37.776Z,5.48
2018-12-10T07:38:30.285Z,5.44
2018-12-10T07:39:30.221Z,5.40
2018-12-10T07:40:30.413Z,5.37
2018-12-10T07:41:30.231Z,5.50
2018-12-10T07:42:30.171Z,5.40
2018-12-10T07:43:30.156Z,5.39
2018-12-10T07:44:30.251Z,5.47
2018-12-10T07:45:30.178Z,5.40
2018-12-10T07:46:30.194Z,5.36
2018-12-10T07:47:30.353Z,5.52
2018-12-10T07:48:30.107Z,5.44
2018-12-10T07:49:30.096Z,5.44
2018-12-10T07:52:25.067Z,5.47
2018-12-10T07:53:32.593Z,5.51
2018-12-10T07:54:32.563Z,5.47
2018-12-10T07:55:33.693Z,5.41
2018-12-10T07:56:33.558Z,5.43
2018-12-10T07:57:25.011Z,5.44
2018-12-10T07:58:24.990Z,5.34
2018-12-10T07:59:32.510Z,5.39
2018-12-10T08:00:24.957Z,5.41
2018-12-10T08:01:24.980Z,5.43
2018-12-10T08:02:24.935Z,5.33
2018-12-10T08:03:24.940Z,5.44
2018-12-10T08:04:24.975Z,5.33
2018-12-10T08:05:24.899Z,5.33
2018-12-10T08:06:24.950Z,5.33
2018-12-10T08:07:24.878Z,5.36
2018-12-10T08:08:33.708Z,5.37
2018-12-10T08:09:24.886Z,5.36
2018-12-10T08:10:24.866Z,5.32
2018-12-10T08:11:24.848Z,5.32
2018-12-10T08:12:24.862Z,5.33
2018-12-10T08:13:24.849Z,5.40
2018-12-10T08:14:24.814Z,5.36
2018-12-10T08:15:24.844Z,5.36
2018-12-10T08:16:24.836Z,5.34
2018-12-10T08:17:24.771Z,5.32
2018-12-10T08:18:24.802Z,5.33
2018-12-10T08:19:33.610Z,5.40
2018-12-10T08:20:24.753Z,5.36
2018-12-10T08:21:24.748Z,5.34
2018-12-10T08:22:24.718Z,5.37
2018-12-10T08:23:33.555Z,5.25
2018-12-10T08:24:24.709Z,5.34
2018-12-10T08:25:24.731Z,5.30
2018-12-10T08:26:24.672Z,5.37
2018-12-10T08:27:24.672Z,5.34
2018-12-10T08:28:24.660Z,5.41
2018-12-10T08:29:24.659Z,5.39
2018-12-10T08:30:24.657Z,5.40
2018-12-10T08:31:24.634Z,5.40
2018-12-10T08:32:32.349Z,5.41
2018-12-10T08:33:24.729Z,5.41
2018-12-10T08:34:24.703Z,5.44
2018-12-10T08:35:24.718Z,5.48
2018-12-10T08:36:24.742Z,5.41
2018-12-10T08:37:24.739Z,5.34
2018-12-10T08:38:24.584Z,5.34
2018-12-10T08:39:24.705Z,5.36
2018-12-10T08:40:24.656Z,5.34
2018-12-10T08:41:24.590Z,5.30
2018-12-10T08:42:24.595Z,5.41
2018-12-10T08:43:24.540Z,5.40
2018-12-10T08:44:24.525Z,5.37
2018-12-10T08:45:24.505Z,5.41
2018-12-10T08:46:24.474Z,5.32
2018-12-10T08:47:24.451Z,5.33
2018-12-10T08:48:24.438Z,5.32
2018-12-10T08:49:24.454Z,5.30
2018-12-10T08:50:24.484Z,5.34
2018-12-10T08:51:24.411Z,5.40
2018-12-10T08:52:24.446Z,5.43
2018-12-10T08:53:24.396Z,5.47
2018-12-10T08:54:24.470Z,5.40
2018-12-10T08:55:24.621Z,5.44
2018-12-10T08:56:24.351Z,5.52
2018-12-10T08:57:24.340Z,5.44
2018-12-10T08:58:33.665Z,5.54
2018-12-10T08:59:24.398Z,5.47
2018-12-10T09:00:24.423Z,5.47
2018-12-10T09:01:24.397Z,5.47
2018-12-10T09:02:24.431Z,5.40
2018-12-10T09:03:24.282Z,5.44
2018-12-10T09:04:24.279Z,5.50
2018-12-10T09:05:24.250Z,5.52
2018-12-10T09:06:24.259Z,5.58
2018-12-10T09:07:24.225Z,5.72
2018-12-10T09:08:24.221Z,5.66
2018-12-10T09:09:24.208Z,5.62
2018-12-10T09:10:24.197Z,5.62
2018-12-10T09:11:24.324Z,5.59
2018-12-10T09:12:24.285Z,5.54
2018-12-10T09:13:24.208Z,5.59
2018-12-10T09:14:24.263Z,5.57
2018-12-10T09:15:24.145Z,5.54
2018-12-10T09:16:24.132Z,5.59
2018-12-10T09:17:24.164Z,5.59
2018-12-10T09:18:24.116Z,5.66
2018-12-10T09:19:24.141Z,5.62
2018-12-10T09:20:24.157Z,5.66
2018-12-10T09:21:24.093Z,5.69
2018-12-10T09:22:24.135Z,5.75
2018-12-10T09:23:24.071Z,5.73
2018-12-10T09:24:24.065Z,5.73
2018-12-10T09:25:25.417Z,5.67
2018-12-10T09:26:24.031Z,5.67
2018-12-10T09:27:24.065Z,5.57
2018-12-10T09:28:24.066Z,5.66
2018-12-10T09:29:24.162Z,5.62
2018-12-10T09:30:24.026Z,5.59
2018-12-10T09:31:24.023Z,5.54
2018-12-10T09:32:23.993Z,5.61
2018-12-10T09:33:24.048Z,5.59
2018-12-10T09:34:23.991Z,5.66
2018-12-10T09:35:23.943Z,5.55
2018-12-10T09:36:23.928Z,5.52
2018-12-10T09:37:23.983Z,5.47
2018-12-10T09:38:23.955Z,5.57
2018-12-10T09:39:23.924Z,5.57
2018-12-10T09:42:23.939Z,5.59
2018-12-10T09:43:23.903Z,5.66
2018-12-10T09:44:23.902Z,5.65
2018-12-10T09:45:23.839Z,5.55
2018-12-10T09:46:27.507Z,5.61
2018-12-10T09:47:23.801Z,5.75
2018-12-10T09:48:23.791Z,5.79
2018-12-10T09:49:23.837Z,5.76
2018-12-10T09:50:23.772Z,5.88
2018-12-10T09:51:23.763Z,5.79
2018-12-10T09:52:23.788Z,5.84
2018-12-10T09:53:23.768Z,5.82
2018-12-10T09:54:23.738Z,5.84
2018-12-10T09:55:23.715Z,5.76
2018-12-10T09:56:23.710Z,5.91
2018-12-10T09:57:24.771Z,5.84
2018-12-10T09:58:23.710Z,5.93
2018-12-10T09:59:23.671Z,5.93
2018-12-10T10:00:23.679Z,5.94
2018-12-10T10:01:23.650Z,5.94
2018-12-10T10:02:23.649Z,5.91
2018-12-10T10:03:23.631Z,5.98
2018-12-10T10:04:23.641Z,6.00
2018-12-10T10:05:23.612Z,6.06
2018-12-10T10:06:23.636Z,6.08
2018-12-10T10:07:28.359Z,6.03
2018-12-10T10:08:24.575Z,6.18
2018-12-10T10:09:23.589Z,6.15
2018-12-10T10:10:23.557Z,6.19
2018-12-10T10:11:23.545Z,6.21
2018-12-10T10:12:23.801Z,6.18
2018-12-10T10:13:23.526Z,6.15
2018-12-10T10:14:23.566Z,6.13
2018-12-10T10:15:23.504Z,6.31
2018-12-10T10:16:23.492Z,6.25
2018-12-10T10:17:23.481Z,6.25
2018-12-10T10:18:23.469Z,6.24
2018-12-10T10:19:23.524Z,6.21
2018-12-10T10:20:23.666Z,6.24
2018-12-10T10:21:23.441Z,6.27
2018-12-10T10:22:23.431Z,6.27
2018-12-10T10:23:23.414Z,6.16
2018-12-10T10:24:23.426Z,6.19
2018-12-10T10:25:23.405Z,6.31
2018-12-10T10:26:23.389Z,6.24
2018-12-10T10:27:23.380Z,6.31
2018-12-10T10:28:23.363Z,6.25
2018-12-10T10:29:23.400Z,6.24
2018-12-10T10:30:23.340Z,6.18
2018-12-10T10:31:23.371Z,6.25
2018-12-10T10:32:23.321Z,6.30
2018-12-10T10:33:23.310Z,6.25
2018-12-10T10:34:23.318Z,6.31
2018-12-10T10:35:23.301Z,6.37
2018-12-10T10:36:23.289Z,6.37
2018-12-10T10:37:23.293Z,6.42
2018-12-10T10:38:23.258Z,6.46
2018-12-10T10:39:23.288Z,6.43
2018-12-10T10:40:23.234Z,6.49
2018-12-10T10:41:31.119Z,6.45
2018-12-10T10:42:24.210Z,6.57
2018-12-10T10:43:23.214Z,6.47
2018-12-10T10:44:23.190Z,6.42
2018-12-10T10:45:23.197Z,6.50
2018-12-10T10:46:23.171Z,6.49
2018-12-10T10:47:23.163Z,6.49
2018-12-10T10:48:23.166Z,6.53
2018-12-10T10:49:23.160Z,6.49
2018-12-10T10:50:23.193Z,6.50
2018-12-10T10:51:23.114Z,6.53
2018-12-10T10:52:23.102Z,6.56
2018-12-10T10:53:23.096Z,6.56
2018-12-10T10:54:23.104Z,6.47
2018-12-10T10:55:23.098Z,6.43
2018-12-10T10:56:23.113Z,6.34
2018-12-10T10:57:23.076Z,6.30
2018-12-10T10:58:23.037Z,6.21
2018-12-10T10:59:23.043Z,6.18
2018-12-10T11:00:23.045Z,6.16
2018-12-10T11:01:23.025Z,6.03
2018-12-10T11:02:23.021Z,6.00
2018-12-10T11:03:22.986Z,6.00
2018-12-10T11:04:22.987Z,5.95
2018-12-10T11:05:23.035Z,5.93
2018-12-10T11:06:22.983Z,5.97
2018-12-10T11:07:22.945Z,5.97
2018-12-10T11:08:22.927Z,6.02
2018-12-10T11:09:22.947Z,6.08
2018-12-10T11:10:22.926Z,5.97
2018-12-10T11:11:22.927Z,5.98
2018-12-10T11:12:22.885Z,6.12
2018-12-10T11:13:22.895Z,6.05
2018-12-10T11:14:22.865Z,5.93
2018-12-10T11:15:22.887Z,5.94
2018-12-10T11:16:22.842Z,5.90
2018-12-10T11:17:22.847Z,5.93
2018-12-10T11:18:22.839Z,5.94
2018-12-10T11:19:22.811Z,5.90
2018-12-10T11:20:22.801Z,5.88
2018-12-10T11:21:22.801Z,5.85
2018-12-10T11:22:22.794Z,5.87
2018-12-10T11:23:22.802Z,5.82
2018-12-10T11:24:22.761Z,5.80
2018-12-10T11:25:22.828Z,5.88
2018-12-10T11:26:22.734Z,5.82
2018-12-10T11:27:22.755Z,5.82
2018-12-10T11:28:22.717Z,5.82
2018-12-10T11:29:30.370Z,5.77
2018-12-10T11:30:31.332Z,5.85
2018-12-10T11:31:30.328Z,5.90
2018-12-10T11:32:22.731Z,5.95
2018-12-10T11:33:22.661Z,6.00
2018-12-10T11:34:22.717Z,5.91
2018-12-10T11:35:22.647Z,5.93
2018-12-10T11:36:22.629Z,5.94
2018-12-10T11:37:22.657Z,5.90
2018-12-10T11:38:22.606Z,5.94
2018-12-10T11:39:22.599Z,5.94
2018-12-10T11:40:22.611Z,6.08
2018-12-10T11:41:22.574Z,6.00
2018-12-10T11:42:22.576Z,6.09
2018-12-10T11:43:22.606Z,6.09
2018-12-10T11:44:22.537Z,6.08
2018-12-10T11:45:22.531Z,6.09
2018-12-10T11:46:22.521Z,6.06
2018-12-10T11:47:22.512Z,6.08
2018-12-10T11:48:22.532Z,6.16
2018-12-10T11:49:22.511Z,6.02
2018-12-10T11:50:22.533Z,6.08
2018-12-10T11:51:22.469Z,6.05
2018-12-10T11:52:22.457Z,6.09
2018-12-10T11:53:22.484Z,6.05
2018-12-10T11:54:22.471Z,6.21
2018-12-10T11:55:22.431Z,6.28
2018-12-10T11:56:22.412Z,6.30
2018-12-10T11:57:22.401Z,6.28
2018-12-10T11:58:22.392Z,6.16
2018-12-10T11:59:22.399Z,6.27
2018-12-10T12:00:22.403Z,6.19
2018-12-10T12:01:22.358Z,6.24
2018-12-10T12:02:29.628Z,6.28
2018-12-10T12:03:23.336Z,6.19
2018-12-10T12:04:22.344Z,6.25
2018-12-10T12:05:22.358Z,6.24
2018-12-10T12:06:22.308Z,6.32
2018-12-10T12:07:22.306Z,6.38
2018-12-10T12:08:22.293Z,6.34
2018-12-10T12:09:22.294Z,6.31
2018-12-10T12:10:22.262Z,6.30
2018-12-10T12:11:22.253Z,6.28
2018-12-10T12:12:22.240Z,6.25
2018-12-10T12:13:22.243Z,6.32
2018-12-10T12:14:22.238Z,6.31
2018-12-10T12:15:22.209Z,6.27
2018-12-10T12:16:22.204Z,6.05
2018-12-10T12:17:22.187Z,6.00
2018-12-10T12:18:22.177Z,6.03
2018-12-10T12:19:22.234Z,6.03
2018-12-10T12:20:22.153Z,6.02
2018-12-10T12:21:22.144Z,6.05
2018-12-10T12:22:22.135Z,6.08
2018-12-10T12:23:29.737Z,6.00
2018-12-10T12:24:22.122Z,6.05
2018-12-10T12:25:22.122Z,6.05
2018-12-10T12:26:22.138Z,6.00
2018-12-10T12:27:23.927Z,6.15
2018-12-10T12:28:22.120Z,6.08
2018-12-10T12:29:22.208Z,6.09
2018-12-10T12:30:22.106Z,6.16
2018-12-10T12:31:22.035Z,6.13
2018-12-10T12:32:22.066Z,6.16
2018-12-10T12:33:22.016Z,6.12
2018-12-10T12:34:22.010Z,6.12
2018-12-10T12:35:21.994Z,6.13
2018-12-10T12:36:22.027Z,6.16
2018-12-10T12:37:21.971Z,6.15
2018-12-10T12:38:21.959Z,6.02
2018-12-10T12:39:21.953Z,6.12
2018-12-10T12:40:21.946Z,5.98
2018-12-10T12:41:21.968Z,6.12
2018-12-10T12:42:21.932Z,6.03
2018-12-10T12:43:21.905Z,6.11
2018-12-10T12:44:21.895Z,6.03
2018-12-10T12:45:21.889Z,6.08
2018-12-10T12:46:21.960Z,6.00
2018-12-10T12:47:21.861Z,6.09
2018-12-10T12:48:21.892Z,6.06
2018-12-10T12:49:21.842Z,6.03
2018-12-10T12:50:21.831Z,6.02
2018-12-10T12:51:21.823Z,6.05
2018-12-10T12:52:21.840Z,6.03
2018-12-10T12:53:21.796Z,6.00
2018-12-10T12:54:21.806Z,5.94
2018-12-10T12:55:21.780Z,5.90
2018-12-10T12:56:21.765Z,5.88
2018-12-10T12:57:21.763Z,5.88
2018-12-10T12:58:21.767Z,5.88
2018-12-10T12:59:21.736Z,5.88
2018-12-10T13:00:27.028Z,5.80
2018-12-10T13:01:22.715Z,5.91
2018-12-10T13:02:21.704Z,5.91
2018-12-10T13:03:21.716Z,5.90
2018-12-10T13:04:21.685Z,5.93
2018-12-10T13:05:21.836Z,5.90
2018-12-10T13:06:21.701Z,5.93
2018-12-10T13:07:21.651Z,5.85
2018-12-10T13:08:21.657Z,5.79
2018-12-10T13:09:22.121Z,5.84
2018-12-10T13:10:21.657Z,5.87
2018-12-10T13:11:21.607Z,5.85
2018-12-10T13:12:21.632Z,5.88
2018-12-10T13:13:21.601Z,5.93
2018-12-10T13:14:21.575Z,5.94
2018-12-10T13:15:21.563Z,5.94
2018-12-10T13:16:21.555Z,5.94
2018-12-10T13:17:21.542Z,5.84
2018-12-10T13:18:21.587Z,5.94
2018-12-10T13:19:29.854Z,5.88
2018-12-10T13:20:29.142Z,5.97
2018-12-10T13:21:31.439Z,6.05
2018-12-10T13:22:29.159Z,5.95
2018-12-10T13:23:21.504Z,6.02
2018-12-10T13:24:21.477Z,5.95
2018-12-10T13:25:21.597Z,6.08
2018-12-10T13:26:21.494Z,6.02
2018-12-10T13:27:21.474Z,6.05
2018-12-10T13:28:21.456Z,6.02
2018-12-10T13:29:31.341Z,6.08
2018-12-10T13:30:29.679Z,6.06
2018-12-10T13:31:28.576Z,6.12
2018-12-10T13:32:21.384Z,6.16
2018-12-10T13:33:21.370Z,6.15
2018-12-10T13:34:21.387Z,6.19
2018-12-10T13:35:21.347Z,6.15
2018-12-10T13:36:21.369Z,6.21
2018-12-10T13:37:21.329Z,6.24